sensor_id;sensor_type;location;lat;lon;timestamp;P1;durP1;ratioP1;P2;durP2;ratioP2
11247;SDS011;5681;53.316;13.950;2022-12-18T00:01:38;54.70;;;19.87;;
11247;SDS011;5681;53.316;13.950;2022-12-18T00:04:04;70.83;;;21.13;;
11247;SDS011;5681;53.316;13.950;2022-12-18T00:06:33;114.27;;;22.07;;
11247;SDS011;5681;53.316;13.950;2022-12-18T00:09:02;65.70;;;21.40;;
11247;SDS011;5681;53.316;13.950;2022-12-18T00:11:29;83.33;;;22.23;;
11247;SDS011;5681;53.316;13.950;2022-12-18T00:13:57;58.80;;;22.00;;
11247;SDS011;5681;53.316;13.950;2022-12-18T00:16:25;64.57;;;22.20;;
11247;SDS011;5681;53.316;13.950;2022-12-18T00:18:54;59.47;;;23.03;;
11247;SDS011;5681;53.316;13.950;2022-12-18T00:21:21;55.50;;;21.70;;
11247;SDS011;5681;53.316;13.950;2022-12-18T00:23:48;56.83;;;23.23;;
11247;SDS011;5681;53.316;13.950;2022-12-18T00:26:15;67.07;;;23.47;;
11247;SDS011;5681;53.316;13.950;2022-12-18T00:28:43;53.90;;;22.27;;
11247;SDS011;5681;53.316;13.950;2022-12-18T00:31:10;108.87;;;22.70;;
11247;SDS011;5681;53.316;13.950;2022-12-18T00:33:38;89.07;;;23.10;;
11247;SDS011;5681;53.316;13.950;2022-12-18T00:36:07;64.67;;;23.10;;
11247;SDS011;5681;53.316;13.950;2022-12-18T00:38:35;51.20;;;22.43;;
11247;SDS011;5681;53.316;13.950;2022-12-18T00:41:02;48.70;;;22.30;;
11247;SDS011;5681;53.316;13.950;2022-12-18T00:43:29;71.47;;;24.30;;
11247;SDS011;5681;53.316;13.950;2022-12-18T00:45:54;103.60;;;23.50;;
11247;SDS011;5681;53.316;13.950;2022-12-18T00:48:21;49.97;;;20.13;;
11247;SDS011;5681;53.316;13.950;2022-12-18T00:50:48;60.27;;;22.37;;
11247;SDS011;5681;53.316;13.950;2022-12-18T00:53:16;62.67;;;23.03;;
11247;SDS011;5681;53.316;13.950;2022-12-18T00:55:43;51.80;;;22.07;;
11247;SDS011;5681;53.316;13.950;2022-12-18T00:58:10;48.90;;;23.70;;
11247;SDS011;5681;53.316;13.950;2022-12-18T01:00:37;53.90;;;23.97;;
11247;SDS011;5681;53.316;13.950;2022-12-18T01:03:04;49.87;;;22.23;;
11247;SDS011;5681;53.316;13.950;2022-12-18T01:05:30;44.97;;;21.13;;
11247;SDS011;5681;53.316;13.950;2022-12-18T01:07:57;53.23;;;21.40;;
11247;SDS011;5681;53.316;13.950;2022-12-18T01:10:25;50.37;;;22.23;;
11247;SDS011;5681;53.316;13.950;2022-12-18T01:12:51;51.40;;;23.13;;
11247;SDS011;5681;53.316;13.950;2022-12-18T01:15:18;46.77;;;22.57;;
11247;SDS011;5681;53.316;13.950;2022-12-18T01:17:46;49.07;;;21.23;;
11247;SDS011;5681;53.316;13.950;2022-12-18T01:20:12;46.47;;;20.80;;
11247;SDS011;5681;53.316;13.950;2022-12-18T01:22:39;44.73;;;21.23;;
11247;SDS011;5681;53.316;13.950;2022-12-18T01:25:05;42.97;;;21.00;;
11247;SDS011;5681;53.316;13.950;2022-12-18T01:27:34;49.10;;;21.07;;
11247;SDS011;5681;53.316;13.950;2022-12-18T01:30:00;43.53;;;21.07;;
11247;SDS011;5681;53.316;13.950;2022-12-18T01:32:28;43.63;;;20.47;;
11247;SDS011;5681;53.316;13.950;2022-12-18T01:34:55;42.93;;;21.07;;
11247;SDS011;5681;53.316;13.950;2022-12-18T01:37:21;47.10;;;21.40;;
11247;SDS011;5681;53.316;13.950;2022-12-18T01:39:48;42.37;;;20.80;;
11247;SDS011;5681;53.316;13.950;2022-12-18T01:42:15;44.93;;;21.37;;
11247;SDS011;5681;53.316;13.950;2022-12-18T01:47:36;44.77;;;19.83;;
11247;SDS011;5681;53.316;13.950;2022-12-18T01:50:06;43.33;;;20.33;;
11247;SDS011;5681;53.316;13.950;2022-12-18T01:52:34;42.07;;;19.73;;
11247;SDS011;5681;53.316;13.950;2022-12-18T01:55:05;46.17;;;21.93;;
11247;SDS011;5681;53.316;13.950;2022-12-18T01:57:32;47.20;;;20.90;;
11247;SDS011;5681;53.316;13.950;2022-12-18T01:59:59;40.03;;;20.10;;
11247;SDS011;5681;53.316;13.950;2022-12-18T02:02:30;41.57;;;21.07;;
11247;SDS011;5681;53.316;13.950;2022-12-18T02:04:59;43.73;;;20.07;;
11247;SDS011;5681;53.316;13.950;2022-12-18T02:07:29;51.27;;;22.20;;
11247;SDS011;5681;53.316;13.950;2022-12-18T02:10:00;48.07;;;21.73;;
11247;SDS011;5681;53.316;13.950;2022-12-18T02:12:30;45.27;;;21.47;;
11247;SDS011;5681;53.316;13.950;2022-12-18T02:15:02;48.10;;;21.93;;
11247;SDS011;5681;53.316;13.950;2022-12-18T02:17:35;50.20;;;22.23;;
11247;SDS011;5681;53.316;13.950;2022-12-18T02:20:05;46.60;;;22.13;;
11247;SDS011;5681;53.316;13.950;2022-12-18T02:22:37;54.87;;;22.27;;
11247;SDS011;5681;53.316;13.950;2022-12-18T02:25:13;57.90;;;22.93;;
11247;SDS011;5681;53.316;13.950;2022-12-18T02:27:48;59.13;;;24.63;;
11247;SDS011;5681;53.316;13.950;2022-12-18T02:30:16;56.67;;;24.73;;
11247;SDS011;5681;53.316;13.950;2022-12-18T02:32:44;58.53;;;24.93;;
11247;SDS011;5681;53.316;13.950;2022-12-18T02:35:12;59.60;;;25.00;;
11247;SDS011;5681;53.316;13.950;2022-12-18T02:37:41;61.83;;;26.63;;
11247;SDS011;5681;53.316;13.950;2022-12-18T02:40:09;60.87;;;25.90;;
11247;SDS011;5681;53.316;13.950;2022-12-18T02:42:37;60.93;;;26.17;;
11247;SDS011;5681;53.316;13.950;2022-12-18T02:45:05;61.90;;;26.43;;
11247;SDS011;5681;53.316;13.950;2022-12-18T02:47:32;62.47;;;25.90;;
11247;SDS011;5681;53.316;13.950;2022-12-18T02:50:05;68.07;;;27.10;;
11247;SDS011;5681;53.316;13.950;2022-12-18T02:52:39;75.50;;;26.13;;
11247;SDS011;5681;53.316;13.950;2022-12-18T02:55:13;69.90;;;27.07;;
11247;SDS011;5681;53.316;13.950;2022-12-18T02:57:45;67.00;;;26.97;;
11247;SDS011;5681;53.316;13.950;2022-12-18T03:00:16;70.70;;;28.17;;
11247;SDS011;5681;53.316;13.950;2022-12-18T03:02:45;75.27;;;28.90;;
11247;SDS011;5681;53.316;13.950;2022-12-18T03:05:15;70.40;;;29.13;;
11247;SDS011;5681;53.316;13.950;2022-12-18T03:07:45;67.83;;;27.57;;
11247;SDS011;5681;53.316;13.950;2022-12-18T03:10:14;74.50;;;28.17;;
11247;SDS011;5681;53.316;13.950;2022-12-18T03:12:43;66.67;;;26.33;;
11247;SDS011;5681;53.316;13.950;2022-12-18T03:15:12;57.17;;;25.97;;
11247;SDS011;5681;53.316;13.950;2022-12-18T03:17:42;61.40;;;27.97;;
11247;SDS011;5681;53.316;13.950;2022-12-18T03:20:12;66.13;;;27.10;;
11247;SDS011;5681;53.316;13.950;2022-12-18T03:22:41;66.57;;;27.53;;
11247;SDS011;5681;53.316;13.950;2022-12-18T03:25:09;58.60;;;25.63;;
11247;SDS011;5681;53.316;13.950;2022-12-18T03:27:39;60.13;;;25.77;;
11247;SDS011;5681;53.316;13.950;2022-12-18T03:30:09;60.60;;;25.50;;
11247;SDS011;5681;53.316;13.950;2022-12-18T03:32:38;57.50;;;25.43;;
11247;SDS011;5681;53.316;13.950;2022-12-18T03:35:07;57.17;;;23.97;;
11247;SDS011;5681;53.316;13.950;2022-12-18T03:37:36;57.33;;;25.30;;
11247;SDS011;5681;53.316;13.950;2022-12-18T03:40:03;58.57;;;24.67;;
11247;SDS011;5681;53.316;13.950;2022-12-18T03:42:32;54.93;;;24.50;;
11247;SDS011;5681;53.316;13.950;2022-12-18T03:45:06;69.23;;;27.23;;
11247;SDS011;5681;53.316;13.950;2022-12-18T03:47:35;60.73;;;26.10;;
11247;SDS011;5681;53.316;13.950;2022-12-18T03:50:06;56.63;;;25.63;;
11247;SDS011;5681;53.316;13.950;2022-12-18T03:52:37;60.03;;;23.80;;
11247;SDS011;5681;53.316;13.950;2022-12-18T03:55:05;57.00;;;25.57;;
11247;SDS011;5681;53.316;13.950;2022-12-18T03:57:32;63.00;;;24.33;;
11247;SDS011;5681;53.316;13.950;2022-12-18T03:59:59;52.20;;;23.33;;
11247;SDS011;5681;53.316;13.950;2022-12-18T04:02:27;52.27;;;24.57;;
11247;SDS011;5681;53.316;13.950;2022-12-18T04:04:56;55.33;;;23.83;;
11247;SDS011;5681;53.316;13.950;2022-12-18T04:07:25;57.30;;;24.43;;
11247;SDS011;5681;53.316;13.950;2022-12-18T04:09:53;69.37;;;25.47;;
11247;SDS011;5681;53.316;13.950;2022-12-18T04:12:23;63.33;;;27.07;;
11247;SDS011;5681;53.316;13.950;2022-12-18T04:14:50;59.67;;;24.90;;
11247;SDS011;5681;53.316;13.950;2022-12-18T04:17:16;59.43;;;23.63;;
11247;SDS011;5681;53.316;13.950;2022-12-18T04:19:42;79.60;;;22.70;;
11247;SDS011;5681;53.316;13.950;2022-12-18T04:22:09;49.97;;;21.40;;
11247;SDS011;5681;53.316;13.950;2022-12-18T04:24:37;48.07;;;21.13;;
11247;SDS011;5681;53.316;13.950;2022-12-18T04:27:03;45.43;;;19.53;;
11247;SDS011;5681;53.316;13.950;2022-12-18T04:29:30;50.40;;;22.07;;
11247;SDS011;5681;53.316;13.950;2022-12-18T04:31:56;66.00;;;22.43;;
11247;SDS011;5681;53.316;13.950;2022-12-18T04:34:22;50.53;;;22.30;;
11247;SDS011;5681;53.316;13.950;2022-12-18T04:36:49;53.10;;;22.97;;
11247;SDS011;5681;53.316;13.950;2022-12-18T04:39:16;64.23;;;24.60;;
11247;SDS011;5681;53.316;13.950;2022-12-18T04:41:43;67.37;;;24.77;;
11247;SDS011;5681;53.316;13.950;2022-12-18T04:44:10;67.40;;;25.03;;
11247;SDS011;5681;53.316;13.950;2022-12-18T04:46:36;78.33;;;22.43;;
11247;SDS011;5681;53.316;13.950;2022-12-18T04:49:03;93.10;;;24.87;;
11247;SDS011;5681;53.316;13.950;2022-12-18T04:51:29;55.43;;;21.83;;
11247;SDS011;5681;53.316;13.950;2022-12-18T04:53:56;64.53;;;20.63;;
11247;SDS011;5681;53.316;13.950;2022-12-18T04:56:22;38.13;;;17.73;;
11247;SDS011;5681;53.316;13.950;2022-12-18T04:58:50;40.57;;;19.27;;
11247;SDS011;5681;53.316;13.950;2022-12-18T05:01:17;44.30;;;20.83;;
11247;SDS011;5681;53.316;13.950;2022-12-18T05:03:43;36.70;;;17.90;;
11247;SDS011;5681;53.316;13.950;2022-12-18T05:06:10;39.30;;;17.77;;
11247;SDS011;5681;53.316;13.950;2022-12-18T05:08:36;42.57;;;18.83;;
11247;SDS011;5681;53.316;13.950;2022-12-18T05:11:04;38.77;;;18.13;;
11247;SDS011;5681;53.316;13.950;2022-12-18T05:13:31;40.10;;;18.57;;
11247;SDS011;5681;53.316;13.950;2022-12-18T05:15:59;46.77;;;19.47;;
11247;SDS011;5681;53.316;13.950;2022-12-18T05:18:26;38.47;;;19.63;;
11247;SDS011;5681;53.316;13.950;2022-12-18T05:20:53;37.00;;;17.70;;
11247;SDS011;5681;53.316;13.950;2022-12-18T05:23:21;44.00;;;20.37;;
11247;SDS011;5681;53.316;13.950;2022-12-18T05:25:50;40.63;;;19.13;;
11247;SDS011;5681;53.316;13.950;2022-12-18T05:28:17;50.93;;;21.03;;
11247;SDS011;5681;53.316;13.950;2022-12-18T05:30:46;44.17;;;19.53;;
11247;SDS011;5681;53.316;13.950;2022-12-18T05:33:15;41.97;;;20.63;;
11247;SDS011;5681;53.316;13.950;2022-12-18T05:35:42;41.40;;;20.60;;
11247;SDS011;5681;53.316;13.950;2022-12-18T05:38:08;42.03;;;19.00;;
11247;SDS011;5681;53.316;13.950;2022-12-18T05:40:35;51.90;;;19.23;;
11247;SDS011;5681;53.316;13.950;2022-12-18T05:43:01;38.93;;;18.67;;
11247;SDS011;5681;53.316;13.950;2022-12-18T05:45:28;39.30;;;18.47;;
11247;SDS011;5681;53.316;13.950;2022-12-18T05:47:54;49.80;;;19.60;;
11247;SDS011;5681;53.316;13.950;2022-12-18T05:50:22;43.47;;;19.63;;
11247;SDS011;5681;53.316;13.950;2022-12-18T05:52:48;52.87;;;19.93;;
11247;SDS011;5681;53.316;13.950;2022-12-18T05:55:15;51.83;;;18.37;;
11247;SDS011;5681;53.316;13.950;2022-12-18T05:57:41;43.33;;;19.03;;
11247;SDS011;5681;53.316;13.950;2022-12-18T06:00:08;46.77;;;19.57;;
11247;SDS011;5681;53.316;13.950;2022-12-18T06:02:35;60.07;;;21.60;;
11247;SDS011;5681;53.316;13.950;2022-12-18T06:05:02;44.77;;;20.53;;
11247;SDS011;5681;53.316;13.950;2022-12-18T06:07:30;54.10;;;22.73;;
11247;SDS011;5681;53.316;13.950;2022-12-18T06:09:56;53.93;;;22.03;;
11247;SDS011;5681;53.316;13.950;2022-12-18T06:12:22;45.23;;;21.37;;
11247;SDS011;5681;53.316;13.950;2022-12-18T06:14:49;58.93;;;21.83;;
11247;SDS011;5681;53.316;13.950;2022-12-18T06:17:15;48.17;;;21.63;;
11247;SDS011;5681;53.316;13.950;2022-12-18T06:19:41;46.07;;;22.30;;
11247;SDS011;5681;53.316;13.950;2022-12-18T06:22:08;51.97;;;22.93;;
11247;SDS011;5681;53.316;13.950;2022-12-18T06:24:35;47.10;;;21.80;;
11247;SDS011;5681;53.316;13.950;2022-12-18T06:27:02;47.60;;;21.97;;
11247;SDS011;5681;53.316;13.950;2022-12-18T06:29:28;48.50;;;21.93;;
11247;SDS011;5681;53.316;13.950;2022-12-18T06:31:54;47.80;;;21.83;;
11247;SDS011;5681;53.316;13.950;2022-12-18T06:34:21;70.33;;;23.40;;
11247;SDS011;5681;53.316;13.950;2022-12-18T06:36:47;45.73;;;20.63;;
11247;SDS011;5681;53.316;13.950;2022-12-18T06:39:13;46.43;;;21.27;;
11247;SDS011;5681;53.316;13.950;2022-12-18T06:41:41;55.67;;;23.57;;
11247;SDS011;5681;53.316;13.950;2022-12-18T06:44:07;47.93;;;22.60;;
11247;SDS011;5681;53.316;13.950;2022-12-18T06:46:34;48.70;;;22.83;;
11247;SDS011;5681;53.316;13.950;2022-12-18T06:49:00;52.27;;;24.50;;
11247;SDS011;5681;53.316;13.950;2022-12-18T06:51:26;54.03;;;25.13;;
11247;SDS011;5681;53.316;13.950;2022-12-18T06:53:53;71.73;;;24.23;;
11247;SDS011;5681;53.316;13.950;2022-12-18T06:56:19;74.57;;;24.43;;
11247;SDS011;5681;53.316;13.950;2022-12-18T06:58:47;56.13;;;21.93;;
11247;SDS011;5681;53.316;13.950;2022-12-18T07:01:13;48.13;;;22.13;;
11247;SDS011;5681;53.316;13.950;2022-12-18T07:03:40;63.93;;;23.87;;
11247;SDS011;5681;53.316;13.950;2022-12-18T07:06:11;48.53;;;23.17;;
11247;SDS011;5681;53.316;13.950;2022-12-18T07:08:39;54.10;;;23.97;;
11247;SDS011;5681;53.316;13.950;2022-12-18T07:11:06;56.27;;;23.93;;
11247;SDS011;5681;53.316;13.950;2022-12-18T07:13:32;50.47;;;24.33;;
11247;SDS011;5681;53.316;13.950;2022-12-18T07:16:04;47.23;;;22.23;;
11247;SDS011;5681;53.316;13.950;2022-12-18T07:18:34;49.10;;;22.93;;
11247;SDS011;5681;53.316;13.950;2022-12-18T07:21:04;56.73;;;25.57;;
11247;SDS011;5681;53.316;13.950;2022-12-18T07:23:31;61.87;;;25.50;;
11247;SDS011;5681;53.316;13.950;2022-12-18T07:26:00;57.27;;;23.43;;
11247;SDS011;5681;53.316;13.950;2022-12-18T07:28:29;71.43;;;21.97;;
11247;SDS011;5681;53.316;13.950;2022-12-18T07:30:56;51.73;;;22.60;;
11247;SDS011;5681;53.316;13.950;2022-12-18T07:33:23;47.03;;;21.33;;
11247;SDS011;5681;53.316;13.950;2022-12-18T07:35:50;48.33;;;20.57;;
11247;SDS011;5681;53.316;13.950;2022-12-18T07:38:16;61.83;;;20.70;;
11247;SDS011;5681;53.316;13.950;2022-12-18T07:40:42;58.10;;;20.03;;
11247;SDS011;5681;53.316;13.950;2022-12-18T07:43:09;46.63;;;20.47;;
11247;SDS011;5681;53.316;13.950;2022-12-18T07:45:35;46.13;;;20.07;;
11247;SDS011;5681;53.316;13.950;2022-12-18T07:48:01;53.30;;;22.23;;
11247;SDS011;5681;53.316;13.950;2022-12-18T07:50:29;51.13;;;22.03;;
11247;SDS011;5681;53.316;13.950;2022-12-18T07:52:56;49.67;;;21.00;;
11247;SDS011;5681;53.316;13.950;2022-12-18T07:55:22;49.93;;;21.00;;
11247;SDS011;5681;53.316;13.950;2022-12-18T07:57:48;59.33;;;21.40;;
11247;SDS011;5681;53.316;13.950;2022-12-18T08:00:15;54.20;;;20.60;;
11247;SDS011;5681;53.316;13.950;2022-12-18T08:02:42;42.43;;;19.73;;
11247;SDS011;5681;53.316;13.950;2022-12-18T08:05:08;46.30;;;20.10;;
11247;SDS011;5681;53.316;13.950;2022-12-18T08:07:36;45.67;;;19.47;;
11247;SDS011;5681;53.316;13.950;2022-12-18T08:10:03;46.13;;;19.20;;
11247;SDS011;5681;53.316;13.950;2022-12-18T08:12:30;43.23;;;19.20;;
11247;SDS011;5681;53.316;13.950;2022-12-18T08:14:56;43.03;;;19.20;;
11247;SDS011;5681;53.316;13.950;2022-12-18T08:17:22;44.97;;;18.83;;
11247;SDS011;5681;53.316;13.950;2022-12-18T08:19:49;43.40;;;19.27;;
11247;SDS011;5681;53.316;13.950;2022-12-18T08:22:15;48.13;;;19.17;;
11247;SDS011;5681;53.316;13.950;2022-12-18T08:24:43;41.23;;;18.83;;
11247;SDS011;5681;53.316;13.950;2022-12-18T08:27:09;50.07;;;18.13;;
11247;SDS011;5681;53.316;13.950;2022-12-18T08:29:36;40.70;;;18.07;;
11247;SDS011;5681;53.316;13.950;2022-12-18T08:32:03;45.87;;;18.93;;
11247;SDS011;5681;53.316;13.950;2022-12-18T08:34:29;47.63;;;19.90;;
11247;SDS011;5681;53.316;13.950;2022-12-18T08:36:56;50.50;;;21.20;;
11247;SDS011;5681;53.316;13.950;2022-12-18T08:39:22;45.17;;;19.50;;
11247;SDS011;5681;53.316;13.950;2022-12-18T08:41:50;50.37;;;20.77;;
11247;SDS011;5681;53.316;13.950;2022-12-18T08:44:30;45.17;;;22.07;;
11247;SDS011;5681;53.316;13.950;2022-12-18T08:47:06;50.67;;;21.27;;
11247;SDS011;5681;53.316;13.950;2022-12-18T08:49:33;54.53;;;19.10;;
11247;SDS011;5681;53.316;13.950;2022-12-18T08:52:00;49.70;;;21.03;;
11247;SDS011;5681;53.316;13.950;2022-12-18T08:54:27;54.40;;;21.60;;
11247;SDS011;5681;53.316;13.950;2022-12-18T08:56:55;51.17;;;21.20;;
11247;SDS011;5681;53.316;13.950;2022-12-18T08:59:22;46.67;;;21.27;;
11247;SDS011;5681;53.316;13.950;2022-12-18T09:01:48;51.20;;;21.03;;
11247;SDS011;5681;53.316;13.950;2022-12-18T09:04:15;45.20;;;20.70;;
11247;SDS011;5681;53.316;13.950;2022-12-18T09:06:41;46.03;;;20.33;;
11247;SDS011;5681;53.316;13.950;2022-12-18T09:09:08;53.70;;;22.63;;
11247;SDS011;5681;53.316;13.950;2022-12-18T09:11:36;61.40;;;25.00;;
11247;SDS011;5681;53.316;13.950;2022-12-18T09:14:04;56.90;;;24.13;;
11247;SDS011;5681;53.316;13.950;2022-12-18T09:16:31;57.67;;;23.43;;
11247;SDS011;5681;53.316;13.950;2022-12-18T09:18:59;60.10;;;24.53;;
11247;SDS011;5681;53.316;13.950;2022-12-18T09:21:27;57.80;;;24.67;;
11247;SDS011;5681;53.316;13.950;2022-12-18T09:23:55;56.10;;;22.93;;
11247;SDS011;5681;53.316;13.950;2022-12-18T09:26:22;55.23;;;22.47;;
11247;SDS011;5681;53.316;13.950;2022-12-18T09:28:49;56.07;;;22.67;;
11247;SDS011;5681;53.316;13.950;2022-12-18T09:31:18;61.73;;;21.90;;
11247;SDS011;5681;53.316;13.950;2022-12-18T09:33:46;50.90;;;22.07;;
11247;SDS011;5681;53.316;13.950;2022-12-18T09:36:13;54.63;;;22.13;;
11247;SDS011;5681;53.316;13.950;2022-12-18T09:38:41;51.43;;;22.27;;
11247;SDS011;5681;53.316;13.950;2022-12-18T09:41:14;54.23;;;21.63;;
11247;SDS011;5681;53.316;13.950;2022-12-18T09:43:45;51.03;;;21.20;;
11247;SDS011;5681;53.316;13.950;2022-12-18T09:46:15;68.73;;;20.67;;
11247;SDS011;5681;53.316;13.950;2022-12-18T09:48:46;43.03;;;19.97;;
11247;SDS011;5681;53.316;13.950;2022-12-18T09:51:15;51.80;;;21.63;;
11247;SDS011;5681;53.316;13.950;2022-12-18T09:53:43;47.80;;;19.40;;
11247;SDS011;5681;53.316;13.950;2022-12-18T09:56:13;49.87;;;21.57;;
11247;SDS011;5681;53.316;13.950;2022-12-18T09:58:43;47.83;;;21.27;;
11247;SDS011;5681;53.316;13.950;2022-12-18T10:01:12;51.63;;;20.17;;
11247;SDS011;5681;53.316;13.950;2022-12-18T10:03:42;47.57;;;20.77;;
11247;SDS011;5681;53.316;13.950;2022-12-18T10:06:12;47.50;;;20.97;;
11247;SDS011;5681;53.316;13.950;2022-12-18T10:08:41;46.13;;;20.00;;
11247;SDS011;5681;53.316;13.950;2022-12-18T10:11:20;45.57;;;20.67;;
11247;SDS011;5681;53.316;13.950;2022-12-18T10:13:52;42.30;;;20.27;;
11247;SDS011;5681;53.316;13.950;2022-12-18T10:16:22;48.53;;;20.33;;
11247;SDS011;5681;53.316;13.950;2022-12-18T10:18:57;42.63;;;19.90;;
11247;SDS011;5681;53.316;13.950;2022-12-18T10:21:38;42.80;;;20.20;;
11247;SDS011;5681;53.316;13.950;2022-12-18T10:24:12;48.73;;;19.20;;
11247;SDS011;5681;53.316;13.950;2022-12-18T10:26:43;43.87;;;19.20;;
11247;SDS011;5681;53.316;13.950;2022-12-18T10:29:11;46.90;;;20.03;;
11247;SDS011;5681;53.316;13.950;2022-12-18T10:31:38;45.37;;;19.30;;
11247;SDS011;5681;53.316;13.950;2022-12-18T10:34:09;48.17;;;19.87;;
11247;SDS011;5681;53.316;13.950;2022-12-18T10:36:36;44.97;;;19.17;;
11247;SDS011;5681;53.316;13.950;2022-12-18T10:39:13;43.00;;;20.27;;
11247;SDS011;5681;53.316;13.950;2022-12-18T10:41:41;47.60;;;19.93;;
11247;SDS011;5681;53.316;13.950;2022-12-18T10:44:11;49.33;;;20.10;;
11247;SDS011;5681;53.316;13.950;2022-12-18T10:46:41;47.73;;;20.03;;
11247;SDS011;5681;53.316;13.950;2022-12-18T10:49:17;52.63;;;21.30;;
11247;SDS011;5681;53.316;13.950;2022-12-18T10:51:47;49.37;;;21.27;;
11247;SDS011;5681;53.316;13.950;2022-12-18T10:54:14;49.63;;;19.80;;
11247;SDS011;5681;53.316;13.950;2022-12-18T10:56:42;55.57;;;22.47;;
11247;SDS011;5681;53.316;13.950;2022-12-18T10:59:09;53.80;;;21.73;;
11247;SDS011;5681;53.316;13.950;2022-12-18T11:01:47;51.47;;;21.23;;
11247;SDS011;5681;53.316;13.950;2022-12-18T11:04:16;49.43;;;21.43;;
11247;SDS011;5681;53.316;13.950;2022-12-18T11:06:53;63.57;;;25.80;;
11247;SDS011;5681;53.316;13.950;2022-12-18T11:09:22;55.23;;;23.57;;
11247;SDS011;5681;53.316;13.950;2022-12-18T11:11:49;55.00;;;23.53;;
11247;SDS011;5681;53.316;13.950;2022-12-18T11:14:17;51.80;;;22.13;;
11247;SDS011;5681;53.316;13.950;2022-12-18T11:16:48;49.20;;;21.93;;
11247;SDS011;5681;53.316;13.950;2022-12-18T11:19:19;57.60;;;23.10;;
11247;SDS011;5681;53.316;13.950;2022-12-18T11:21:53;48.97;;;22.17;;
11247;SDS011;5681;53.316;13.950;2022-12-18T11:24:21;47.97;;;23.00;;
11247;SDS011;5681;53.316;13.950;2022-12-18T11:26:51;48.03;;;22.40;;
11247;SDS011;5681;53.316;13.950;2022-12-18T11:29:18;51.37;;;23.17;;
11247;SDS011;5681;53.316;13.950;2022-12-18T11:31:49;45.60;;;22.70;;
11247;SDS011;5681;53.316;13.950;2022-12-18T11:34:16;45.30;;;21.83;;
11247;SDS011;5681;53.316;13.950;2022-12-18T11:36:46;47.70;;;21.77;;
11247;SDS011;5681;53.316;13.950;2022-12-18T11:39:15;52.47;;;23.87;;
11247;SDS011;5681;53.316;13.950;2022-12-18T11:41:46;60.33;;;24.07;;
11247;SDS011;5681;53.316;13.950;2022-12-18T11:44:35;48.60;;;22.93;;
11247;SDS011;5681;53.316;13.950;2022-12-18T11:47:09;46.00;;;21.90;;
11247;SDS011;5681;53.316;13.950;2022-12-18T11:49:39;52.63;;;20.97;;
11247;SDS011;5681;53.316;13.950;2022-12-18T11:52:09;44.43;;;21.47;;
11247;SDS011;5681;53.316;13.950;2022-12-18T11:54:40;44.87;;;21.43;;
11247;SDS011;5681;53.316;13.950;2022-12-18T11:57:07;47.10;;;21.83;;
11247;SDS011;5681;53.316;13.950;2022-12-18T11:59:38;44.33;;;23.80;;
11247;SDS011;5681;53.316;13.950;2022-12-18T12:02:14;47.77;;;22.50;;
11247;SDS011;5681;53.316;13.950;2022-12-18T12:04:56;42.37;;;20.77;;
11247;SDS011;5681;53.316;13.950;2022-12-18T12:07:32;40.00;;;19.97;;
11247;SDS011;5681;53.316;13.950;2022-12-18T12:10:09;39.20;;;20.17;;
11247;SDS011;5681;53.316;13.950;2022-12-18T12:12:51;41.07;;;20.93;;
11247;SDS011;5681;53.316;13.950;2022-12-18T12:15:28;39.33;;;21.77;;
11247;SDS011;5681;53.316;13.950;2022-12-18T12:18:01;41.83;;;21.00;;
11247;SDS011;5681;53.316;13.950;2022-12-18T12:20:37;40.77;;;20.43;;
11247;SDS011;5681;53.316;13.950;2022-12-18T12:23:12;38.73;;;20.07;;
11247;SDS011;5681;53.316;13.950;2022-12-18T12:25:43;40.53;;;20.10;;
11247;SDS011;5681;53.316;13.950;2022-12-18T12:28:15;39.17;;;19.53;;
11247;SDS011;5681;53.316;13.950;2022-12-18T12:31:00;38.07;;;20.27;;
11247;SDS011;5681;53.316;13.950;2022-12-18T12:33:34;37.83;;;18.83;;
11247;SDS011;5681;53.316;13.950;2022-12-18T12:36:08;36.10;;;18.97;;
11247;SDS011;5681;53.316;13.950;2022-12-18T12:38:41;37.67;;;18.40;;
11247;SDS011;5681;53.316;13.950;2022-12-18T12:41:12;38.00;;;19.97;;
11247;SDS011;5681;53.316;13.950;2022-12-18T12:43:53;41.33;;;21.00;;
11247;SDS011;5681;53.316;13.950;2022-12-18T12:46:22;39.07;;;20.60;;
11247;SDS011;5681;53.316;13.950;2022-12-18T12:48:49;40.47;;;21.33;;
11247;SDS011;5681;53.316;13.950;2022-12-18T12:51:18;38.17;;;19.93;;
11247;SDS011;5681;53.316;13.950;2022-12-18T12:53:47;40.80;;;20.57;;
11247;SDS011;5681;53.316;13.950;2022-12-18T12:56:15;38.93;;;20.10;;
11247;SDS011;5681;53.316;13.950;2022-12-18T12:58:52;42.03;;;22.43;;
11247;SDS011;5681;53.316;13.950;2022-12-18T13:01:25;39.77;;;21.03;;
11247;SDS011;5681;53.316;13.950;2022-12-18T13:04:01;40.07;;;20.97;;
11247;SDS011;5681;53.316;13.950;2022-12-18T13:06:40;61.33;;;34.93;;
11247;SDS011;5681;53.316;13.950;2022-12-18T13:09:10;39.20;;;20.80;;
11247;SDS011;5681;53.316;13.950;2022-12-18T13:11:38;44.57;;;22.43;;
11247;SDS011;5681;53.316;13.950;2022-12-18T13:14:24;42.37;;;21.63;;
11247;SDS011;5681;53.316;13.950;2022-12-18T13:19:40;38.53;;;20.60;;
11247;SDS011;5681;53.316;13.950;2022-12-18T13:22:12;40.60;;;20.33;;
11247;SDS011;5681;53.316;13.950;2022-12-18T13:24:47;38.67;;;20.03;;
11247;SDS011;5681;53.316;13.950;2022-12-18T13:27:46;38.27;;;19.73;;
11247;SDS011;5681;53.316;13.950;2022-12-18T13:30:41;36.37;;;18.13;;
11247;SDS011;5681;53.316;13.950;2022-12-18T13:36:10;49.97;;;26.53;;
11247;SDS011;5681;53.316;13.950;2022-12-18T13:38:39;39.77;;;21.53;;
11247;SDS011;5681;53.316;13.950;2022-12-18T13:41:20;40.37;;;20.90;;
11247;SDS011;5681;53.316;13.950;2022-12-18T13:43:50;34.30;;;18.47;;
11247;SDS011;5681;53.316;13.950;2022-12-18T13:46:21;34.10;;;17.87;;
11247;SDS011;5681;53.316;13.950;2022-12-18T13:48:54;35.70;;;19.20;;
11247;SDS011;5681;53.316;13.950;2022-12-18T13:51:22;32.90;;;19.43;;
11247;SDS011;5681;53.316;13.950;2022-12-18T13:53:50;38.37;;;19.53;;
11247;SDS011;5681;53.316;13.950;2022-12-18T13:56:17;38.47;;;20.80;;
11247;SDS011;5681;53.316;13.950;2022-12-18T14:01:43;38.87;;;18.23;;
11247;SDS011;5681;53.316;13.950;2022-12-18T14:04:11;35.00;;;19.03;;
11247;SDS011;5681;53.316;13.950;2022-12-18T14:06:38;33.17;;;18.47;;
11247;SDS011;5681;53.316;13.950;2022-12-18T14:09:05;35.97;;;19.43;;
11247;SDS011;5681;53.316;13.950;2022-12-18T14:11:31;36.30;;;20.70;;
11247;SDS011;5681;53.316;13.950;2022-12-18T14:13:58;38.63;;;21.77;;
11247;SDS011;5681;53.316;13.950;2022-12-18T14:16:25;37.03;;;20.33;;
11247;SDS011;5681;53.316;13.950;2022-12-18T14:18:53;36.03;;;20.00;;
11247;SDS011;5681;53.316;13.950;2022-12-18T14:21:21;36.20;;;20.40;;
11247;SDS011;5681;53.316;13.950;2022-12-18T14:23:49;33.77;;;19.93;;
11247;SDS011;5681;53.316;13.950;2022-12-18T14:26:29;37.90;;;21.00;;
11247;SDS011;5681;53.316;13.950;2022-12-18T14:28:56;32.73;;;19.50;;
11247;SDS011;5681;53.316;13.950;2022-12-18T14:31:24;36.87;;;20.13;;
11247;SDS011;5681;53.316;13.950;2022-12-18T14:33:53;38.73;;;20.93;;
11247;SDS011;5681;53.316;13.950;2022-12-18T14:36:20;41.83;;;22.07;;
11247;SDS011;5681;53.316;13.950;2022-12-18T14:38:48;41.60;;;21.63;;
11247;SDS011;5681;53.316;13.950;2022-12-18T14:41:15;35.70;;;18.83;;
11247;SDS011;5681;53.316;13.950;2022-12-18T14:43:44;39.37;;;21.50;;